Time;durP1;ratioP1;P1;durP2;ratioP2;P2;SDS_P1;SDS_P2;PMS_P1;PMS_P2;Temp;Humidity;BMP_temperature;BMP_pressure;BME280_temperature;BME280_humidity;BME280_pressure;Samples;Min_cycle;Max_cycle;Signal;HPM_P1;HPM_P2
2020/12/08 00:00:37;;;;;;;31.07;15.20;;;;;;;-0.51;71.63;100477.28;1625746;85;26117;-79
2020/12/08 00:03:06;;;;;;;31.93;18.17;;;;;;;-0.57;71.55;100476.92;1642591;85;27616;-78
2020/12/08 00:05:34;;;;;;;33.00;17.90;;;;;;;-0.57;71.53;100489.60;1634229;85;25758;-78
2020/12/08 00:08:06;;;;;;;25.80;14.85;;;;;;;-0.57;71.66;100499.28;1610627;86;26307;-79
2020/12/08 00:10:35;;;;;;;30.82;16.93;;;;;;;-0.60;71.99;100497.75;1637043;86;25804;-78
2020/12/08 00:13:02;;;;;;;34.90;17.35;;;;;;;-0.59;71.68;100495.93;1640419;85;25785;-79
2020/12/08 00:15:29;;;;;;;28.57;14.70;;;;;;;-0.58;71.74;100494.99;1651932;85;27282;-80
2020/12/08 00:17:57;;;;;;;32.75;16.62;;;;;;;-0.59;71.77;100495.93;1636954;86;25795;-79
2020/12/08 00:20:26;;;;;;;29.35;16.05;;;;;;;-0.56;71.86;100491.77;1616009;86;25796;-77
2020/12/08 00:22:53;;;;;;;31.95;16.97;;;;;;;-0.60;71.92;100483.28;1646140;84;26551;-79
2020/12/08 00:25:23;;;;;;;31.80;16.25;;;;;;;-0.53;71.72;100494.14;1630250;85;25900;-80
2020/12/08 00:27:50;;;;;;;30.35;15.53;;;;;;;-0.52;71.90;100495.36;1634999;85;28461;-78
2020/12/08 00:30:18;;;;;;;31.77;16.12;;;;;;;-0.50;71.82;100500.02;1683227;84;25366;-78
2020/12/08 00:32:45;;;;;;;29.05;16.73;;;;;;;-0.50;71.86;100496.55;1649428;85;26598;-79
2020/12/08 00:35:15;;;;;;;29.52;16.35;;;;;;;-0.50;71.98;100501.80;1635073;86;25862;-79
2020/12/08 00:37:47;;;;;;;27.58;14.15;;;;;;;-0.49;71.96;100505.63;1610386;85;26183;-78
2020/12/08 00:40:15;;;;;;;32.48;16.15;;;;;;;-0.50;71.96;100507.91;1649846;85;26876;-80
2020/12/08 00:42:42;;;;;;;30.32;16.20;;;;;;;-0.49;72.01;100512.20;1645564;85;25918;-78
2020/12/08 00:45:12;;;;;;;29.00;15.30;;;;;;;-0.47;72.02;100513.42;1655128;85;25872;-79
2020/12/08 00:47:40;;;;;;;26.37;14.98;;;;;;;-0.46;72.13;100515.08;1654817;84;25676;-78
2020/12/08 00:50:09;;;;;;;37.65;18.07;;;;;;;-0.45;72.05;100516.77;1598668;85;25657;-79
2020/12/08 00:52:37;;;;;;;35.35;17.27;;;;;;;-0.43;72.13;100521.43;1624917;85;27672;-79
2020/12/08 00:55:07;;;;;;;30.55;16.42;;;;;;;-0.42;72.12;100517.36;1676208;84;26229;-78
2020/12/08 00:57:35;;;;;;;26.73;14.33;;;;;;;-0.40;71.62;100514.59;1674265;83;26437;-79
2020/12/08 01:00:06;;;;;;;27.27;15.30;;;;;;;-0.42;71.68;100512.56;1655968;86;25930;-79
2020/12/08 01:02:35;;;;;;;25.95;14.38;;;;;;;-0.44;71.65;100519.27;1642132;84;27162;-77
2020/12/08 01:05:04;;;;;;;25.20;13.35;;;;;;;-0.47;71.64;100518.17;1650997;84;28509;-79
2020/12/08 01:07:31;;;;;;;21.62;11.48;;;;;;;-0.50;71.65;100513.17;1645090;86;25782;-79
2020/12/08 01:09:58;;;;;;;25.10;14.40;;;;;;;-0.47;71.58;100512.10;1629901;86;25928;-79
2020/12/08 01:12:26;;;;;;;26.30;13.93;;;;;;;-0.49;71.48;100519.28;1645463;84;26494;-79
2020/12/08 01:14:55;;;;;;;22.55;13.48;;;;;;;-0.50;71.64;100513.17;1663686;84;25794;-79
2020/12/08 01:17:22;;;;;;;29.85;14.65;;;;;;;-0.49;71.53;100512.70;1677197;83;27528;-78
2020/12/08 01:19:51;;;;;;;23.73;13.62;;;;;;;-0.50;71.59;100515.80;1677096;83;26064;-78
2020/12/08 01:22:19;;;;;;;27.60;14.18;;;;;;;-0.52;71.36;100508.98;1673791;83;25867;-79
2020/12/08 01:24:46;;;;;;;23.77;13.48;;;;;;;-0.51;71.58;100509.36;1655188;84;25843;-78
2020/12/08 01:27:15;;;;;;;20.97;11.38;;;;;;;-0.55;71.48;100492.95;1629628;84;25870;-79
2020/12/08 01:29:44;;;;;;;35.20;15.20;;;;;;;-0.52;71.40;100501.09;1667589;84;27524;-79
2020/12/08 01:32:13;;;;;;;25.77;14.78;;;;;;;-0.55;71.44;100510.05;1654653;83;25764;-78
2020/12/08 01:34:41;;;;;;;22.50;12.58;;;;;;;-0.54;71.51;100514.37;1637218;86;25879;-78
2020/12/08 01:37:10;;;;;;;22.10;12.50;;;;;;;-0.53;71.50;100500.72;1671890;85;26276;-79
2020/12/08 01:39:38;;;;;;;24.50;14.53;;;;;;;-0.59;71.32;100496.78;1608422;85;25826;-79
2020/12/08 01:42:06;;;;;;;19.45;11.68;;;;;;;-0.59;71.23;100505.98;1641956;85;28474;-79
2020/12/08 01:44:34;;;;;;;21.95;12.43;;;;;;;-0.59;71.64;100509.08;1661894;84;26111;-78
2020/12/08 01:47:04;;;;;;;22.52;12.07;;;;;;;-0.66;71.48;100495.56;1682344;83;25888;-78
2020/12/08 01:49:33;;;;;;;23.60;13.05;;;;;;;-0.66;71.48;100495.56;1674106;83;25524;-78
2020/12/08 01:52:02;;;;;;;26.20;13.45;;;;;;;-0.59;71.41;100505.98;1644090;85;25771;-79
2020/12/08 01:54:30;;;;;;;20.02;12.20;;;;;;;-0.59;71.31;100505.98;1674780;84;27528;-80
2020/12/08 01:56:58;;;;;;;20.02;11.12;;;;;;;-0.60;71.48;100501.70;1616584;85;25897;-79
2020/12/08 01:59:28;;;;;;;23.70;13.28;;;;;;;-0.61;71.41;100508.36;1633766;86;25916;-79
2020/12/08 02:02:07;;;;;;;24.23;13.68;;;;;;;-0.56;71.49;100501.81;1807073;77;25653;-79
2020/12/08 02:04:38;;;;;;;22.65;12.75;;;;;;;-0.61;71.38;100500.00;1746037;79;25723;-78
2020/12/08 02:07:08;;;;;;;22.73;11.90;;;;;;;-0.61;71.44;100508.36;1764977;79;27748;-79
2020/12/08 02:09:38;;;;;;;21.93;13.35;;;;;;;-0.67;71.26;100501.80;1704410;82;25682;-79
2020/12/08 02:12:07;;;;;;;26.27;13.18;;;;;;;-0.67;71.26;100501.80;1712928;80;26019;-79
2020/12/08 02:14:36;;;;;;;21.68;10.93;;;;;;;-0.69;71.37;100493.19;1699172;80;25894;-78
2020/12/08 02:17:05;;;;;;;26.73;12.93;;;;;;;-0.61;71.19;100514.47;1637645;85;26556;-78
2020/12/08 02:19:34;;;;;;;22.27;12.13;;;;;;;-0.62;71.23;100506.20;1631850;85;28256;-77
2020/12/08 02:22:02;;;;;;;23.52;13.28;;;;;;;-0.59;71.11;100511.72;1676673;83;25793;-78
2020/12/08 02:24:31;;;;;;;23.07;12.30;;;;;;;-0.61;71.23;100509.21;1662027;83;25878;-78
2020/12/08 02:27:00;;;;;;;23.42;12.93;;;;;;;-0.61;71.23;100509.21;1658569;83;25947;-79
2020/12/08 02:29:29;;;;;;;19.90;12.00;;;;;;;-0.62;71.08;100518.05;1662814;83;25745;-78
2020/12/08 02:31:57;;;;;;;23.27;12.53;;;;;;;-0.63;70.88;100519.02;1684863;83;28001;-80
2020/12/08 02:34:25;;;;;;;22.17;10.90;;;;;;;-0.63;71.07;100521.64;1657775;83;25794;-78
2020/12/08 02:36:59;;;;;;;21.60;11.93;;;;;;;-0.63;70.92;100519.02;1643987;83;25793;-77
2020/12/08 02:39:30;;;;;;;20.77;12.50;;;;;;;-0.62;70.97;100525.13;1687054;83;25835;-79
2020/12/08 02:41:58;;;;;;;24.82;13.25;;;;;;;-0.66;70.73;100523.18;1683503;83;25868;-79
2020/12/08 02:44:26;;;;;;;22.62;12.70;;;;;;;-0.69;70.91;100512.92;1658944;83;28466;-78
2020/12/08 02:46:54;;;;;;;22.10;12.55;;;;;;;-0.69;70.91;100512.92;1665394;83;26071;-79
2020/12/08 02:49:24;;;;;;;25.68;12.70;;;;;;;-0.63;70.64;100528.22;1661187;83;25811;-79
2020/12/08 02:51:57;;;;;;;24.60;13.55;;;;;;;-0.64;70.45;100520.45;1690377;83;25919;-78
2020/12/08 02:54:28;;;;;;;23.45;12.18;;;;;;;-0.65;70.03;100521.40;1653004;85;25798;-78
2020/12/08 02:57:05;;;;;;;22.22;12.05;;;;;;;-0.67;70.02;100513.63;1635901;83;27509;-79
2020/12/08 02:59:34;;;;;;;21.35;11.20;;;;;;;-0.67;70.43;100515.42;1665348;83;25827;-79
2020/12/08 03:02:02;;;;;;;24.90;12.90;;;;;;;-0.66;70.37;100515.30;1671372;83;26297;-78
2020/12/08 03:04:31;;;;;;;23.38;10.98;;;;;;;-0.65;70.11;100511.72;1649237;85;25811;-79
2020/12/08 03:07:01;;;;;;;20.00;11.60;;;;;;;-0.62;70.29;100509.34;1645445;83;26115;-79
2020/12/08 03:09:28;;;;;;;21.40;11.20;;;;;;;-0.63;70.22;100507.18;1661955;83;27330;-79
2020/12/08 03:11:57;;;;;;;22.40;11.53;;;;;;;-0.66;70.09;100498.70;1658107;83;25404;-78
2020/12/08 03:14:25;;;;;;;22.25;10.55;;;;;;;-0.66;70.09;100498.70;1640349;85;25760;-79
2020/12/08 03:16:58;;;;;;;17.07;9.50;;;;;;;-0.62;70.16;100507.52;1642691;85;25746;-79
2020/12/08 03:19:26;;;;;;;23.45;12.03;;;;;;;-0.62;70.01;100502.77;1645798;83;25836;-78
2020/12/08 03:21:55;;;;;;;21.45;11.40;;;;;;;-0.64;69.79;100500.23;1661461;83;29066;-78
2020/12/08 03:24:27;;;;;;;19.02;10.53;;;;;;;-0.64;70.00;100498.10;1647354;83;26692;-78
2020/12/08 03:26:56;;;;;;;20.90;11.30;;;;;;;-0.65;69.96;100496.41;1651913;83;26495;-79
2020/12/08 03:29:25;;;;;;;21.02;11.48;;;;;;;-0.69;69.92;100490.56;1666093;83;26170;-78
2020/12/08 03:31:54;;;;;;;22.42;10.90;;;;;;;-0.62;69.98;100506.20;1662661;83;25930;-78
2020/12/08 03:34:21;;;;;;;24.55;12.82;;;;;;;-0.61;70.16;100506.58;1633944;83;27608;-78
2020/12/08 03:36:49;;;;;;;20.68;11.12;;;;;;;-0.61;70.16;100506.58;1656606;83;25834;-78
2020/12/08 03:39:17;;;;;;;20.48;10.43;;;;;;;-0.66;69.80;100494.75;1662784;83;25795;-79
2020/12/08 03:41:45;;;;;;;21.30;10.93;;;;;;;-0.62;69.56;100508.84;1698269;83;26386;-78
2020/12/08 03:44:13;;;;;;;22.07;11.55;;;;;;;-0.62;69.56;100508.84;1638184;85;25898;-78
2020/12/08 03:46:41;;;;;;;21.52;11.03;;;;;;;-0.62;69.64;100516.73;1674465;83;27546;-79
2020/12/08 03:49:09;;;;;;;24.18;12.23;;;;;;;-0.60;69.84;100511.37;1690506;83;25865;-79
2020/12/08 03:51:37;;;;;;;22.35;11.55;;;;;;;-0.60;69.71;100512.69;1691940;83;26165;-78
2020/12/08 03:54:06;;;;;;;22.17;11.33;;;;;;;-0.61;69.65;100518.42;1618782;85;26548;-79
2020/12/08 03:56:35;;;;;;;20.45;9.70;;;;;;;-0.62;69.70;100511.47;1639528;83;26206;-79
2020/12/08 03:59:04;;;;;;;15.85;8.90;;;;;;;-0.62;69.70;100511.47;1668843;83;27326;-78
2020/12/08 04:01:32;;;;;;;22.73;11.45;;;;;;;-0.61;69.66;100513.62;1655925;84;26014;-78
2020/12/08 04:04:01;;;;;;;20.85;10.78;;;;;;;-0.61;69.68;100515.78;1657213;85;26326;-78
2020/12/08 04:06:31;;;;;;;20.88;10.70;;;;;;;-0.59;69.78;100513.03;1622271;85;25352;-79
2020/12/08 04:09:00;;;;;;;22.95;12.05;;;;;;;-0.60;69.75;100509.59;1657536;85;25765;-79
2020/12/08 04:11:31;;;;;;;24.23;11.28;;;;;;;-0.57;69.78;100520.33;1667842;85;27529;-78
2020/12/08 04:14:03;;;;;;;19.70;10.70;;;;;;;-0.58;69.51;100519.52;1632086;85;25808;-78
2020/12/08 04:16:37;;;;;;;19.60;10.20;;;;;;;-0.57;69.74;100515.91;1623329;85;25863;-78
2020/12/08 04:19:06;;;;;;;18.45;9.95;;;;;;;-0.56;69.72;100521.55;1654625;85;25902;-78
2020/12/08 04:21:36;;;;;;;17.98;8.88;;;;;;;-0.55;69.53;100523.20;1653390;85;26151;-78
2020/12/08 04:24:15;;;;;;;17.85;11.05;;;;;;;-0.55;69.45;100523.20;1658856;83;27517;-78
2020/12/08 04:26:45;;;;;;;20.95;10.35;;;;;;;-0.55;69.38;100519.73;1642443;84;26550;-78
2020/12/08 04:29:14;;;;;;;15.25;8.80;;;;;;;-0.56;69.60;100512.81;1679199;83;25864;-78
2020/12/08 04:31:45;;;;;;;22.05;10.65;;;;;;;-0.56;69.60;100512.81;1641877;83;26479;-81
2020/12/08 04:34:12;;;;;;;20.20;10.38;;;;;;;-0.56;69.49;100518.07;1646104;83;26175;-79
2020/12/08 04:36:40;;;;;;;20.60;10.28;;;;;;;-0.57;69.62;100519.86;1653081;83;27504;-78
2020/12/08 04:39:07;;;;;;;22.82;10.40;;;;;;;-0.55;69.81;100524.52;1674865;83;26563;-78
2020/12/08 04:41:35;;;;;;;12.37;7.25;;;;;;;-0.52;69.45;100522.13;1700570;83;25803;-79
2020/12/08 04:44:05;;;;;;;19.92;11.55;;;;;;;-0.53;69.44;100517.81;1623515;83;25843;-79
2020/12/08 04:46:34;;;;;;;16.48;9.30;;;;;;;-0.64;69.54;100507.30;1644465;84;26555;-79
2020/12/08 04:49:02;;;;;;;20.80;11.43;;;;;;;-0.57;69.63;100511.96;1652912;83;27406;-78
2020/12/08 04:51:29;;;;;;;20.80;9.10;;;;;;;-0.56;69.61;100522.02;1701545;83;25800;-79
2020/12/08 04:53:57;;;;;;;18.75;9.78;;;;;;;-0.56;69.63;100518.91;1621342;83;25733;-78
2020/12/08 04:56:25;;;;;;;24.07;11.65;;;;;;;-0.55;69.76;100519.73;1647950;84;26037;-78
2020/12/08 04:58:52;;;;;;;18.07;9.33;;;;;;;-0.55;69.74;100508.73;1679324;83;25746;-78
2020/12/08 05:01:27;;;;;;;15.98;8.43;;;;;;;-0.55;69.67;100520.58;1690299;82;27534;-79
2020/12/08 05:04:04;;;;;;;21.37;10.40;;;;;;;-0.55;69.49;100526.30;1657239;82;26570;-79
2020/12/08 05:06:31;;;;;;;17.05;9.05;;;;;;;-0.55;69.49;100526.30;1691708;82;25729;-78
2020/12/08 05:09:06;;;;;;;19.42;10.48;;;;;;;-0.52;69.71;100527.39;1690228;83;25786;-79
2020/12/08 05:11:36;;;;;;;19.32;10.48;;;;;;;-0.52;69.71;100526.08;1702466;82;25836;-78
2020/12/08 05:14:06;;;;;;;16.40;8.88;;;;;;;-0.49;69.84;100525.36;1616664;82;27663;-79
2020/12/08 05:16:34;;;;;;;18.50;9.77;;;;;;;-0.47;69.91;100518.68;1665252;82;26453;-79
2020/12/08 05:19:11;;;;;;;22.55;10.70;;;;;;;-0.45;69.53;100525.47;1711116;82;25857;-78
2020/12/08 05:21:52;;;;;;;31.15;14.07;;;;;;;-0.45;69.67;100522.84;1707636;82;25807;-78
2020/12/08 05:24:28;;;;;;;22.85;11.80;;;;;;;-0.45;69.48;100525.98;1699146;82;25812;-78
2020/12/08 05:26:59;;;;;;;19.35;10.98;;;;;;;-0.47;69.26;100523.44;1663331;83;27556;-78
2020/12/08 05:29:30;;;;;;;16.65;9.93;;;;;;;-0.45;69.46;100518.08;1666133;84;25905;-78
2020/12/08 05:32:02;;;;;;;12.60;8.85;;;;;;;-0.44;69.28;100522.38;1667105;84;26413;-78
2020/12/08 05:34:41;;;;;;;17.52;9.78;;;;;;;-0.40;69.18;100514.59;1793671;79;26331;-78
2020/12/08 05:37:11;;;;;;;14.10;8.80;;;;;;;-0.49;69.17;100529.30;1722153;80;26163;-79
2020/12/08 05:39:41;;;;;;;14.43;8.93;;;;;;;-0.49;69.30;100533.25;1722379;80;27473;-78
2020/12/08 05:42:14;;;;;;;16.48;9.28;;;;;;;-0.50;69.46;100531.59;1701363;80;26431;-78
2020/12/08 05:44:51;;;;;;;18.25;8.60;;;;;;;-0.46;69.24;100534.34;1787893;79;25731;-79
2020/12/08 05:47:21;;;;;;;;;;;;;;;-0.51;69.45;100530.41;1717909;80;26101;-79
2020/12/08 05:50:02;;;;;;;24.87;12.93;;;;;;;-0.53;69.12;100529.18;1734734;81;27543;-79
2020/12/08 05:52:33;;;;;;;15.78;8.88;;;;;;;-0.54;69.59;100534.57;1753776;80;26076;-79
2020/12/08 05:55:11;;;;;;;11.03;7.17;;;;;;;-0.53;69.51;100534.44;1754794;79;25798;-78
2020/12/08 05:57:40;;;;;;;13.08;8.10;;;;;;;-0.53;69.50;100527.87;1751470;79;25842;-78
2020/12/08 06:00:28;;;;;;;13.43;7.00;;;;;;;-0.53;69.78;100530.50;1704048;80;25818;-78
2020/12/08 06:03:16;;;;;;;13.18;7.58;;;;;;;-0.49;69.61;100533.75;1754204;79;27368;-80
2020/12/08 06:05:48;;;;;;;15.75;8.80;;;;;;;-0.50;69.67;100539.95;1766992;79;26396;-79
2020/12/08 06:08:22;;;;;;;14.28;8.83;;;;;;;-0.49;69.70;100542.96;1713604;79;25839;-78
2020/12/08 06:10:57;;;;;;;11.73;6.47;;;;;;;-0.49;69.72;100541.64;1713163;79;25843;-78
2020/12/08 06:13:32;;;;;;;17.05;8.65;;;;;;;-0.48;69.47;100538.04;1692928;82;25863;-78
2020/12/08 06:16:13;;;;;;;16.65;9.05;;;;;;;-0.50;69.33;100542.11;1716286;81;27598;-78
2020/12/08 06:18:40;;;;;;;16.15;8.05;;;;;;;-0.51;69.29;100539.61;1668342;83;26497;-78
2020/12/08 06:21:24;;;;;;;15.18;9.18;;;;;;;-0.51;69.18;100544.37;1683984;81;26498;-78
2020/12/08 06:23:55;;;;;;;16.45;8.95;;;;;;;-0.51;69.43;100548.81;1706540;81;26548;-78
2020/12/08 06:26:29;;;;;;;15.13;8.83;;;;;;;-0.51;69.29;100548.81;1693119;83;25908;-78
2020/12/08 06:28:57;;;;;;;16.85;9.33;;;;;;;-0.51;69.42;100543.05;1692937;83;27627;-78
2020/12/08 06:31:25;;;;;;;22.13;10.32;;;;;;;-0.49;69.33;100547.72;1709288;81;25898;-78
2020/12/08 06:33:56;;;;;;;19.00;9.35;;;;;;;-0.50;69.00;100547.38;1667610;82;25927;-79
2020/12/08 06:36:27;;;;;;;15.38;9.93;;;;;;;-0.51;69.23;100546.19;1689079;81;26116;-78
2020/12/08 06:39:08;;;;;;;16.75;10.00;;;;;;;-0.51;69.17;100547.00;1669243;83;26480;-79
2020/12/08 06:41:39;;;;;;;21.05;10.18;;;;;;;-0.51;69.17;100547.00;1690019;83;28411;-78
2020/12/08 06:44:17;;;;;;;13.53;7.72;;;;;;;-0.47;69.60;100544.99;1666492;81;25938;-79
2020/12/08 06:46:58;;;;;;;15.38;9.10;;;;;;;-0.47;69.03;100548.94;1685770;82;26010;-79
2020/12/08 06:49:42;;;;;;;18.00;9.68;;;;;;;-0.44;69.28;100542.95;1838123;77;26000;-79
2020/12/08 06:52:10;;;;;;;13.62;9.55;;;;;;;-0.50;69.21;100544.74;1764933;78;25811;-79
2020/12/08 06:54:40;;;;;;;20.65;11.00;;;;;;;-0.49;69.41;100544.27;1761677;78;27529;-79
2020/12/08 06:57:09;;;;;;;18.98;9.88;;;;;;;-0.51;69.37;100543.05;1723699;81;25868;-79
2020/12/08 06:59:36;;;;;;;20.57;11.88;;;;;;;-0.48;69.67;100544.14;1717075;81;25705;-79
2020/12/08 07:02:04;;;;;;;18.40;9.60;;;;;;;-0.44;69.50;100546.90;1666718;81;25886;-78
2020/12/08 07:04:32;;;;;;;15.63;8.60;;;;;;;-0.45;69.50;100556.23;1692915;82;26464;-78
2020/12/08 07:07:00;;;;;;;18.65;9.90;;;;;;;-0.44;69.65;100552.16;1676242;84;27617;-78
2020/12/08 07:09:34;;;;;;;14.98;8.68;;;;;;;-0.43;69.66;100552.53;1709760;82;26130;-78
2020/12/08 07:12:04;;;;;;;17.57;8.20;;;;;;;-0.42;69.63;100553.34;1665204;83;26521;-78
2020/12/08 07:14:35;;;;;;;12.98;7.67;;;;;;;-0.40;69.59;100561.96;1735836;81;26062;-78
2020/12/08 07:17:01;;;;;;;14.30;8.18;;;;;;;-0.42;69.54;100560.77;1692624;83;26013;-78
2020/12/08 07:19:31;;;;;;;15.13;8.75;;;;;;;-0.39;69.62;100570.23;1719282;82;28450;-79
2020/12/08 07:22:01;;;;;;;14.78;8.00;;;;;;;-0.37;69.50;100567.84;1697519;82;26219;-79
2020/12/08 07:24:30;;;;;;;18.25;10.35;;;;;;;-0.37;69.26;100573.11;1675040;83;25836;-79
2020/12/08 07:27:01;;;;;;;18.52;9.75;;;;;;;-0.36;69.33;100570.81;1676132;82;25682;-79
2020/12/08 07:29:28;;;;;;;12.18;8.93;;;;;;;-0.34;69.42;100572.85;1711756;83;26096;-79
2020/12/08 07:31:56;;;;;;;15.40;8.98;;;;;;;-0.33;69.29;100574.55;1659535;83;27515;-79
2020/12/08 07:34:23;;;;;;;15.43;8.65;;;;;;;-0.31;69.58;100576.58;1682522;83;25991;-78
2020/12/08 07:36:51;;;;;;;18.62;10.28;;;;;;;-0.30;69.51;100581.38;1672034;81;26271;-78
2020/12/08 07:39:20;;;;;;;16.52;9.83;;;;;;;-0.28;69.37;100589.48;1689839;83;25847;-79
2020/12/08 07:41:48;;;;;;;14.75;8.93;;;;;;;-0.29;69.25;100592.24;1627639;82;25789;-79
2020/12/08 07:44:17;;;;;;;14.87;8.13;;;;;;;-0.30;69.01;100594.03;1686997;83;27630;-78
2020/12/08 07:46:49;;;;;;;13.28;7.92;;;;;;;-0.30;69.05;100580.87;1692690;82;25920;-79
2020/12/08 07:49:18;;;;;;;16.57;9.23;;;;;;;-0.29;69.34;100586.98;1692975;82;25804;-78
2020/12/08 07:51:50;;;;;;;14.73;8.98;;;;;;;-0.28;69.17;100578.95;1696538;83;25901;-78
2020/12/08 07:54:19;;;;;;;14.58;8.20;;;;;;;-0.29;68.80;100581.72;1668444;83;25988;-79
2020/12/08 07:56:47;;;;;;;15.18;9.53;;;;;;;-0.29;69.03;100575.14;1696879;83;27058;-79
2020/12/08 07:59:14;;;;;;;14.05;7.80;;;;;;;-0.29;68.95;100576.45;1693085;83;26177;-79
2020/12/08 08:01:44;;;;;;;19.42;11.20;;;;;;;-0.27;69.09;100586.37;1642496;84;25991;-77
2020/12/08 08:04:12;;;;;;;15.98;10.03;;;;;;;-0.24;69.06;100584.84;1647600;84;25831;-79
2020/12/08 08:06:41;;;;;;;18.35;9.00;;;;;;;-0.22;69.00;100590.82;1656469;84;25919;-78
2020/12/08 08:09:09;;;;;;;13.90;9.73;;;;;;;-0.23;69.02;100587.34;1664805;84;28304;-79
2020/12/08 08:11:37;;;;;;;17.25;10.93;;;;;;;-0.22;69.08;100589.50;1649052;83;25792;-78
2020/12/08 08:14:06;;;;;;;18.42;11.53;;;;;;;-0.22;68.74;100581.14;1650413;83;25814;-79
2020/12/08 08:16:34;;;;;;;19.30;10.95;;;;;;;-0.21;68.92;100590.69;1668062;83;25829;-79
2020/12/08 08:19:03;;;;;;;19.75;12.35;;;;;;;-0.18;68.95;100584.36;1699627;83;25956;-79
2020/12/08 08:21:31;;;;;;;18.17;11.80;;;;;;;-0.19;68.40;100584.83;1695345;83;28518;-78
2020/12/08 08:23:59;;;;;;;23.22;11.80;;;;;;;-0.20;68.52;100588.44;1669224;83;26169;-78
2020/12/08 08:26:28;;;;;;;16.42;10.82;;;;;;;-0.20;68.52;100585.80;1620200;84;25732;-78
2020/12/08 08:28:55;;;;;;;20.12;10.98;;;;;;;-0.19;68.76;100593.20;1692952;84;26422;-78
2020/12/08 08:31:23;;;;;;;23.12;11.63;;;;;;;-0.18;68.72;100589.16;1672874;83;25240;-79
2020/12/08 08:33:51;;;;;;;29.30;14.65;;;;;;;-0.17;68.76;100598.70;1674477;83;27542;-79
2020/12/08 08:36:18;;;;;;;23.90;13.25;;;;;;;-0.14;68.59;100596.33;1701964;83;25575;-78
2020/12/08 08:38:46;;;;;;;21.75;12.18;;;;;;;-0.15;68.68;100596.80;1681067;83;25822;-78
2020/12/08 08:41:14;;;;;;;27.37;13.85;;;;;;;-0.12;68.72;100595.25;1671171;84;25791;-79
2020/12/08 08:43:43;;;;;;;19.55;13.28;;;;;;;-0.13;68.62;100594.06;1646112;83;26494;-77
2020/12/08 08:46:12;;;;;;;20.15;11.33;;;;;;;-0.14;68.55;100593.22;1695965;83;28285;-79
2020/12/08 08:48:40;;;;;;;19.57;11.75;;;;;;;-0.16;68.60;100605.66;1726385;81;25751;-78
2020/12/08 08:51:08;;;;;;;19.73;12.98;;;;;;;-0.14;68.71;100600.27;1687304;83;25891;-80
2020/12/08 08:53:35;;;;;;;19.02;12.75;;;;;;;-0.13;68.49;100604.59;1706136;83;26558;-79
2020/12/08 08:56:04;;;;;;;25.48;15.72;;;;;;;-0.14;68.30;100608.17;1680087;83;25770;-79
2020/12/08 08:58:32;;;;;;;36.60;19.82;;;;;;;-0.14;68.25;100617.38;1663538;83;27539;-79
2020/12/08 09:00:59;;;;;;;35.70;19.80;;;;;;;-0.14;68.37;100620.86;1686954;81;26127;-78
2020/12/08 09:03:26;;;;;;;23.45;15.53;;;;;;;-0.10;68.60;100622.77;1694998;83;26452;-78
2020/12/08 09:05:54;;;;;;;19.20;11.28;;;;;;;-0.07;68.25;100625.18;1664949;83;25437;-78
2020/12/08 09:08:24;;;;;;;18.70;11.20;;;;;;;-0.08;68.23;100629.59;1725553;82;26454;-78
2020/12/08 09:10:51;;;;;;;21.82;11.70;;;;;;;-0.08;68.54;100626.12;1702593;80;28433;-78
2020/12/08 09:13:18;;;;;;;20.05;11.12;;;;;;;-0.06;68.55;100632.10;1720607;81;25852;-78
2020/12/08 09:15:46;;;;;;;25.90;12.58;;;;;;;-0.05;68.48;100635.11;1742933;80;25945;-80
2020/12/08 09:18:13;;;;;;;27.62;13.72;;;;;;;-0.06;68.04;100644.80;1766437;80;26561;-78
2020/12/08 09:20:40;;;;;;;28.87;20.05;;;;;;;-0.05;68.35;100641.69;1735925;81;25962;-78
2020/12/08 09:23:07;;;;;;;17.15;11.45;;;;;;;-0.03;68.79;100639.78;1748773;80;28498;-78
2020/12/08 09:25:35;;;;;;;17.77;10.80;;;;;;;0.03;68.29;100629.23;1755666;80;25810;-79
2020/12/08 09:28:02;;;;;;;14.05;8.68;;;;;;;0.03;68.37;100641.09;1763389;80;26386;-78
2020/12/08 09:30:30;;;;;;;18.45;10.60;;;;;;;0.04;68.51;100636.19;1736171;80;25827;-78
2020/12/08 09:32:57;;;;;;;20.48;10.75;;;;;;;0.06;68.35;100640.86;1744286;80;25781;-78
2020/12/08 09:35:24;;;;;;;19.48;9.98;;;;;;;0.09;68.44;100645.41;1745428;80;27506;-78
2020/12/08 09:37:51;;;;;;;19.52;10.93;;;;;;;0.09;68.28;100638.81;1767898;80;25591;-78
2020/12/08 09:40:20;;;;;;;15.93;9.70;;;;;;;0.09;68.18;100636.19;1721524;80;25803;-78
2020/12/08 09:42:48;;;;;;;17.70;9.75;;;;;;;0.08;68.26;100627.09;1744612;80;25614;-79
2020/12/08 09:45:15;;;;;;;14.47;8.25;;;;;;;0.09;68.33;100625.65;1759599;80;25805;-77
2020/12/08 09:47:43;;;;;;;18.52;9.45;;;;;;;0.11;68.11;100629.50;1768655;80;27536;-78
2020/12/08 09:50:10;;;;;;;18.75;10.90;;;;;;;0.11;68.41;100633.45;1738401;80;26230;-79
2020/12/08 09:52:38;;;;;;;19.80;9.95;;;;;;;0.12;68.07;100632.48;1736165;80;25915;-79
2020/12/08 09:55:06;;;;;;;19.50;9.90;;;;;;;0.12;68.28;100628.06;1740609;81;25772;-78
2020/12/08 09:57:34;;;;;;;20.43;11.03;;;;;;;0.16;68.40;100626.01;1771409;80;26106;-79
2020/12/08 10:00:01;;;;;;;20.20;10.68;;;;;;;0.17;68.25;100621.93;1715437;80;27539;-78
2020/12/08 10:02:28;;;;;;;16.17;9.15;;;;;;;0.20;68.20;100627.44;1701426;80;26143;-78
2020/12/08 10:04:56;;;;;;;20.50;11.05;;;;;;;0.22;68.05;100618.47;1749399;80;26406;-79
2020/12/08 10:07:24;;;;;;;21.10;11.68;;;;;;;0.24;68.22;100617.02;1761899;80;25787;-79
2020/12/08 10:09:51;;;;;;;21.35;12.30;;;;;;;0.28;68.28;100621.12;1724594;80;26583;-79
2020/12/08 10:12:19;;;;;;;20.82;11.88;;;;;;;0.27;67.74;100616.32;1743190;80;27785;-79
2020/12/08 10:14:48;;;;;;;16.45;9.80;;;;;;;0.27;68.08;100616.32;1709460;81;25869;-79
2020/12/08 10:17:16;;;;;;;21.75;11.53;;;;;;;0.30;67.98;100615.25;1726152;81;25865;-78
2020/12/08 10:19:47;;;;;;;27.05;13.22;;;;;;;0.29;67.97;100617.03;1681179;83;25779;-79
2020/12/08 10:22:14;;;;;;;21.48;12.78;;;;;;;0.31;68.14;100620.39;1687881;81;25414;-80
2020/12/08 10:24:43;;;;;;;18.70;9.13;;;;;;;0.32;67.91;100622.05;1707229;82;28402;-78
2020/12/08 10:27:11;;;;;;;22.30;10.80;;;;;;;0.35;68.14;100619.66;1689094;83;25923;-79
2020/12/08 10:29:38;;;;;;;20.95;11.18;;;;;;;0.37;67.80;100611.99;1717736;82;25933;-79
2020/12/08 10:32:05;;;;;;;26.35;13.05;;;;;;;0.37;68.01;100604.09;1715114;80;25855;-79
2020/12/08 10:34:33;;;;;;;26.07;13.35;;;;;;;0.38;68.05;100611.05;1763071;80;25540;-79
2020/12/08 10:37:00;;;;;;;26.20;14.30;;;;;;;0.39;67.86;100614.02;1771741;80;28504;-79
2020/12/08 10:39:27;;;;;;;23.98;12.28;;;;;;;0.38;67.86;100611.52;1740219;81;25813;-78
2020/12/08 10:41:56;;;;;;;23.10;12.70;;;;;;;0.40;68.16;100613.08;1730204;80;26456;-79
2020/12/08 10:44:24;;;;;;;25.62;13.93;;;;;;;0.42;67.92;100614.27;1740919;80;26075;-79
2020/12/08 10:46:52;;;;;;;20.97;12.00;;;;;;;0.42;68.20;100611.16;1766341;80;25742;-79
2020/12/08 10:49:21;;;;;;;20.97;13.32;;;;;;;0.45;68.15;100612.22;1771775;80;28394;-79
2020/12/08 10:51:48;;;;;;;24.30;11.75;;;;;;;0.46;68.12;100598.56;1719979;80;25825;-79
2020/12/08 10:54:16;;;;;;;22.98;13.08;;;;;;;0.45;68.14;100599.04;1747063;80;26507;-78
2020/12/08 10:56:43;;;;;;;19.55;11.28;;;;;;;0.46;68.14;100594.14;1745835;80;25871;-78
2020/12/08 10:59:10;;;;;;;21.62;12.73;;;;;;;0.47;67.97;100594.48;1759058;80;25770;-79
2020/12/08 11:01:39;;;;;;;27.22;11.70;;;;;;;0.47;68.24;100587.89;1700708;80;27542;-79
2020/12/08 11:04:06;;;;;;;22.58;10.15;;;;;;;0.48;68.46;100587.42;1747337;81;26103;-79
2020/12/08 11:06:34;;;;;;;22.67;13.48;;;;;;;0.46;68.82;100588.02;1738030;80;25859;-78
2020/12/08 11:09:01;;;;;;;25.95;15.93;;;;;;;0.43;69.10;100589.10;1765026;80;25945;-79
2020/12/08 11:11:33;;;;;;;26.00;15.30;;;;;;;0.45;69.20;100591.64;1715281;81;25839;-79
2020/12/08 11:14:01;;;;;;;24.15;13.88;;;;;;;0.47;69.48;100601.06;1741354;80;27527;-78
2020/12/08 11:16:28;;;;;;;21.65;13.35;;;;;;;0.49;69.48;100600.47;1750411;80;25638;-78
2020/12/08 11:18:56;;;;;;;24.95;15.65;;;;;;;0.48;69.13;100602.76;1772684;80;25713;-80
2020/12/08 11:21:26;;;;;;;26.30;14.50;;;;;;;0.47;69.19;100598.94;1672329;82;25837;-79
2020/12/08 11:23:55;;;;;;;22.58;12.63;;;;;;;0.48;69.00;100596.64;1670514;84;25868;-79